createdAt,value
2018-04-22T00:01:57.744Z,18.43
2018-04-22T00:04:25.370Z,18.40
2018-04-22T00:06:52.967Z,18.43
2018-04-22T00:09:20.594Z,18.40
2018-04-22T00:11:48.194Z,18.39
2018-04-22T00:14:15.826Z,18.41
2018-04-22T00:16:43.422Z,18.34
2018-04-22T00:19:11.056Z,18.30
2018-04-22T00:21:38.656Z,18.23
2018-04-22T00:24:06.454Z,18.17
2018-04-22T00:26:34.050Z,18.01
2018-04-22T00:29:01.697Z,17.94
2018-04-22T00:31:29.302Z,17.93
2018-04-22T00:33:56.917Z,17.94
2018-04-22T00:36:24.513Z,17.92
2018-04-22T00:38:52.158Z,17.83
2018-04-22T00:41:19.770Z,17.81
2018-04-22T00:43:47.355Z,17.74
2018-04-22T00:46:14.970Z,17.69
2018-04-22T00:48:42.575Z,17.64
2018-04-22T00:51:10.194Z,17.62
2018-04-22T00:53:49.450Z,17.56
2018-04-22T00:56:17.274Z,17.55
2018-04-22T00:58:44.951Z,17.53
2018-04-22T01:01:12.551Z,17.48
2018-04-22T01:03:40.170Z,17.48
2018-04-22T01:06:07.778Z,17.40
2018-04-22T01:08:35.395Z,17.44
2018-04-22T01:11:02.989Z,17.35
2018-04-22T01:13:30.982Z,17.37
2018-04-22T01:15:58.577Z,17.38
2018-04-22T01:18:26.192Z,17.35
2018-04-22T01:20:53.811Z,17.30
2018-04-22T01:23:21.413Z,17.24
2018-04-22T01:25:49.232Z,17.21
2018-04-22T01:28:16.835Z,17.20
2018-04-22T01:30:44.441Z,17.06
2018-04-22T01:33:12.059Z,17.03
2018-04-22T01:35:39.651Z,16.89
2018-04-22T01:38:07.451Z,16.84
2018-04-22T01:40:35.061Z,16.83
2018-04-22T01:43:02.730Z,16.76
2018-04-22T01:45:30.354Z,16.78
2018-04-22T01:47:57.971Z,16.78
2018-04-22T01:50:25.602Z,16.78
2018-04-22T01:52:53.852Z,16.71
2018-04-22T01:55:21.454Z,16.54
2018-04-22T01:57:49.083Z,16.55
2018-04-22T02:00:16.678Z,16.47
2018-04-22T02:02:44.322Z,16.52
2018-04-22T02:05:11.915Z,16.49
2018-04-22T02:07:39.532Z,16.45
2018-04-22T02:10:07.171Z,16.41
2018-04-22T02:12:34.776Z,16.41
2018-04-22T02:15:02.448Z,16.42
2018-04-22T02:17:30.050Z,16.45
2018-04-22T02:19:57.651Z,16.43
2018-04-22T02:22:25.281Z,16.36
2018-04-22T02:24:52.882Z,16.33
2018-04-22T02:27:20.530Z,16.26
2018-04-22T02:29:48.126Z,16.28
2018-04-22T02:32:15.718Z,16.23
2018-04-22T02:34:43.351Z,16.19
2018-04-22T02:37:10.951Z,16.17
2018-04-22T02:39:39.718Z,16.18
2018-04-22T02:42:07.319Z,16.15
2018-04-22T02:44:34.918Z,16.04
2018-04-22T02:47:02.594Z,16.01
2018-04-22T02:49:30.197Z,15.92
2018-04-22T02:51:57.963Z,15.90
2018-04-22T02:54:25.555Z,15.86
2018-04-22T02:56:53.161Z,15.84
2018-04-22T02:59:20.779Z,15.82
2018-04-22T03:01:49.407Z,15.81
2018-04-22T03:04:17.040Z,15.77
2018-04-22T03:06:44.652Z,15.78
2018-04-22T03:09:12.287Z,15.76
2018-04-22T03:11:39.899Z,15.73
2018-04-22T03:14:07.498Z,15.64
2018-04-22T03:16:35.122Z,15.50
2018-04-22T03:19:02.823Z,15.45
2018-04-22T03:21:30.458Z,15.41
2018-04-22T03:23:58.051Z,15.33
2018-04-22T03:26:25.818Z,15.26
2018-04-22T03:28:53.406Z,15.26
2018-04-22T03:31:21.806Z,15.18
2018-04-22T03:33:49.433Z,15.16
2018-04-22T03:36:17.047Z,15.18
2018-04-22T03:38:44.682Z,15.12
2018-04-22T03:41:12.282Z,15.01
2018-04-22T03:43:40.198Z,15.01
2018-04-22T03:46:07.799Z,15.00
2018-04-22T03:48:35.399Z,15.01
2018-04-22T03:51:03.022Z,15.04
2018-04-22T03:53:30.624Z,15.06
2018-04-22T03:55:58.270Z,15.08
2018-04-22T03:58:25.866Z,15.07
2018-04-22T04:00:53.469Z,15.08
2018-04-22T04:03:21.091Z,15.07
2018-04-22T04:05:48.687Z,15.03
2018-04-22T04:08:16.310Z,14.98
2018-04-22T04:10:43.904Z,15.00
2018-04-22T04:13:11.730Z,15.00
2018-04-22T04:15:39.341Z,15.00
2018-04-22T04:21:33.186Z,15.01
2018-04-22T04:27:42.178Z,15.03
2018-04-22T04:30:09.806Z,15.01
2018-04-22T04:32:37.419Z,15.05
2018-04-22T04:35:05.324Z,15.08
2018-04-22T04:37:32.926Z,15.07
2018-04-22T04:40:00.534Z,15.12
2018-04-22T04:42:28.155Z,15.12
2018-04-22T04:44:55.755Z,15.03
2018-04-22T04:47:23.380Z,14.99
2018-04-22T04:49:50.979Z,14.97
2018-04-22T04:52:18.756Z,14.98
2018-04-22T04:54:46.368Z,14.98
2018-04-22T04:57:13.993Z,15.00
2018-04-22T04:59:41.706Z,15.03
2018-04-22T05:02:09.303Z,14.98
2018-04-22T05:04:36.920Z,15.03
2018-04-22T05:07:04.521Z,15.08
2018-04-22T05:09:32.162Z,15.17
2018-04-22T05:11:59.757Z,15.17
2018-04-22T05:14:27.352Z,15.21
2018-04-22T05:16:54.978Z,15.23
2018-04-22T05:19:22.581Z,15.22
2018-04-22T05:21:50.207Z,15.24
2018-04-22T05:24:17.846Z,15.24
2018-04-22T05:26:45.482Z,15.26
2018-04-22T05:29:13.083Z,15.28
2018-04-22T05:31:40.805Z,15.30
2018-04-22T05:34:08.433Z,15.27
2018-04-22T05:36:36.028Z,15.33
2018-04-22T05:39:03.661Z,15.35
2018-04-22T05:41:31.263Z,15.41
2018-04-22T05:43:59.050Z,15.50
2018-04-22T05:46:26.652Z,15.51
2018-04-22T05:48:54.271Z,15.54
2018-04-22T05:51:21.891Z,15.60
2018-04-22T05:53:49.503Z,15.70
2018-04-22T05:56:17.134Z,15.73
2018-04-22T05:58:44.735Z,15.79
2018-04-22T06:01:12.580Z,15.86
2018-04-22T06:03:40.182Z,15.85
2018-04-22T06:06:07.873Z,15.82
2018-04-22T06:08:35.527Z,15.88
2018-04-22T06:11:03.118Z,15.97
2018-04-22T06:16:04.498Z,16.15
2018-04-22T06:18:32.266Z,16.20
2018-04-22T06:20:59.869Z,16.15
2018-04-22T06:23:27.471Z,16.22
2018-04-22T06:25:55.089Z,16.30
2018-04-22T06:28:22.709Z,16.42
2018-04-22T06:30:50.331Z,16.49
2018-04-22T06:33:17.942Z,16.64
2018-04-22T06:35:45.696Z,16.78
2018-04-22T06:38:13.292Z,16.91
2018-04-22T06:40:40.902Z,17.03
2018-04-22T06:43:08.514Z,17.13
2018-04-22T06:45:36.114Z,17.24
2018-04-22T06:48:03.736Z,17.33
2018-04-22T06:50:31.330Z,17.36
2018-04-22T06:52:59.130Z,17.49
2018-04-22T06:55:26.722Z,17.58
2018-04-22T06:57:54.313Z,17.67
2018-04-22T07:00:21.950Z,17.93
2018-04-22T07:02:49.554Z,18.02
2018-04-22T07:05:17.191Z,18.20
2018-04-22T07:07:44.793Z,18.29
2018-04-22T07:10:12.436Z,18.35
2018-04-22T07:12:40.037Z,18.49
2018-04-22T07:15:07.633Z,18.60
2018-04-22T07:17:35.255Z,18.72
2018-04-22T07:20:02.852Z,18.75
2018-04-22T07:22:30.479Z,18.89
2018-04-22T07:24:58.074Z,18.96
2018-04-22T07:27:26.045Z,18.98
2018-04-22T07:29:53.643Z,19.09
2018-04-22T07:32:21.268Z,19.12
2018-04-22T07:34:48.996Z,19.25
2018-04-22T07:37:16.628Z,19.44
2018-04-22T07:39:44.255Z,19.48
2018-04-22T07:42:12.003Z,19.63
2018-04-22T07:44:39.625Z,19.80
2018-04-22T07:47:07.257Z,19.96
2018-04-22T07:49:34.862Z,20.05
2018-04-22T07:52:02.488Z,20.26
2018-04-22T07:54:30.078Z,20.33
2018-04-22T07:56:57.708Z,20.32
2018-04-22T07:59:25.311Z,20.39
2018-04-22T08:01:52.906Z,20.47
2018-04-22T08:04:20.549Z,20.58
2018-04-22T08:06:48.164Z,20.80
2018-04-22T08:09:15.808Z,20.86
2018-04-22T08:11:43.406Z,21.11
2018-04-22T08:14:11.009Z,21.14
2018-04-22T08:16:38.631Z,20.97
2018-04-22T08:19:06.230Z,21.00
2018-04-22T08:21:33.849Z,21.19
2018-04-22T08:24:01.503Z,21.26
2018-04-22T08:26:29.102Z,21.54
2018-04-22T08:28:56.724Z,21.51
2018-04-22T08:31:24.681Z,21.72
2018-04-22T08:33:52.504Z,21.67
2018-04-22T08:36:20.095Z,21.77
2018-04-22T08:38:47.711Z,21.74
2018-04-22T08:41:15.343Z,21.91
2018-04-22T08:43:42.961Z,21.97
2018-04-22T08:46:10.582Z,22.12
2018-04-22T08:48:38.177Z,22.31
2018-04-22T08:51:05.806Z,22.45
2018-04-22T08:53:33.402Z,22.56
2018-04-22T08:56:01.044Z,22.45
2018-04-22T08:58:29.197Z,22.63
2018-04-22T09:00:56.823Z,22.66
2018-04-22T09:03:24.445Z,22.86
2018-04-22T09:05:52.047Z,22.82
2018-04-22T09:08:19.659Z,22.89
2018-04-22T09:10:47.274Z,22.97
2018-04-22T09:13:14.900Z,22.72
2018-04-22T09:15:42.523Z,22.82
2018-04-22T09:18:10.140Z,22.83
2018-04-22T09:20:37.752Z,23.19
2018-04-22T09:23:05.431Z,23.45
2018-04-22T09:25:33.024Z,23.45
2018-04-22T09:28:00.689Z,23.44
2018-04-22T09:30:28.269Z,23.45
2018-04-22T09:32:55.915Z,23.43
2018-04-22T09:35:23.515Z,23.35
2018-04-22T09:37:51.129Z,23.41
2018-04-22T09:40:18.743Z,23.48
2018-04-22T09:42:46.341Z,23.73
2018-04-22T09:45:13.969Z,23.88
2018-04-22T09:47:41.585Z,24.16
2018-04-22T09:50:09.210Z,24.06
2018-04-22T09:52:36.818Z,23.84
2018-04-22T09:55:04.437Z,23.96
2018-04-22T09:57:32.022Z,24.16
2018-04-22T09:59:59.635Z,24.35
2018-04-22T10:02:33.222Z,24.51
2018-04-22T10:05:06.310Z,24.67
2018-04-22T10:07:33.902Z,24.64
2018-04-22T10:10:01.520Z,24.81
2018-04-22T10:12:29.261Z,24.84
2018-04-22T10:14:56.881Z,25.03
2018-04-22T10:17:24.475Z,25.16
2018-04-22T10:19:52.098Z,25.06
2018-04-22T10:22:19.698Z,25.19
2018-04-22T10:24:47.381Z,25.17
2018-04-22T10:27:14.982Z,25.26
2018-04-22T10:29:43.032Z,25.26
2018-04-22T10:32:10.639Z,25.14
2018-04-22T10:34:38.288Z,25.35
2018-04-22T10:37:05.876Z,25.51
2018-04-22T10:39:33.531Z,25.56
2018-04-22T10:42:01.196Z,25.68
2018-04-22T10:44:28.839Z,25.75
2018-04-22T10:46:56.456Z,25.74
2018-04-22T10:49:24.049Z,25.42
2018-04-22T10:51:51.682Z,25.14
2018-04-22T10:54:19.291Z,25.02
2018-04-22T10:56:46.915Z,24.89
2018-04-22T10:59:14.512Z,24.79
2018-04-22T11:01:42.146Z,24.54
2018-04-22T11:04:09.746Z,24.45
2018-04-22T11:06:37.358Z,24.48
2018-04-22T11:09:05.698Z,24.63
2018-04-22T11:11:33.329Z,24.91
2018-04-22T11:14:01.024Z,24.81
2018-04-22T11:16:28.648Z,24.71
2018-04-22T11:18:56.242Z,24.82
2018-04-22T11:21:23.867Z,24.46
2018-04-22T11:23:52.224Z,24.59
2018-04-22T11:26:19.870Z,24.93
2018-04-22T11:28:47.470Z,24.95
2018-04-22T11:31:15.089Z,24.79
2018-04-22T11:33:42.681Z,24.87
2018-04-22T11:36:10.306Z,24.63
2018-04-22T11:38:37.922Z,24.73
2018-04-22T11:41:05.539Z,24.86
2018-04-22T11:43:33.126Z,25.23
2018-04-22T11:46:00.743Z,25.40
2018-04-22T11:48:28.329Z,25.83
2018-04-22T11:50:55.940Z,25.58
2018-04-22T11:53:23.539Z,25.33
2018-04-22T11:55:51.173Z,25.27
2018-04-22T11:58:18.762Z,25.19
2018-04-22T12:00:46.360Z,24.97
2018-04-22T12:03:13.975Z,24.75
2018-04-22T12:05:41.581Z,24.81
2018-04-22T12:08:09.311Z,25.00
2018-04-22T12:10:36.946Z,25.20
2018-04-22T12:13:04.535Z,25.25
2018-04-22T12:15:32.154Z,25.91
2018-04-22T12:17:59.742Z,25.90
2018-04-22T12:20:27.484Z,25.89
2018-04-22T12:22:55.494Z,26.42
2018-04-22T12:25:23.129Z,26.52
2018-04-22T12:27:50.717Z,26.40
2018-04-22T12:30:18.319Z,26.27
2018-04-22T12:32:45.923Z,26.32
2018-04-22T12:35:13.506Z,26.49
2018-04-22T12:37:41.139Z,26.36
2018-04-22T12:40:08.733Z,26.31
2018-04-22T12:42:36.342Z,26.35
2018-04-22T12:45:03.952Z,26.66
2018-04-22T12:47:31.574Z,26.85
2018-04-22T12:49:59.162Z,27.02
2018-04-22T12:52:26.815Z,27.17
2018-04-22T12:54:54.456Z,27.61
2018-04-22T12:57:22.203Z,27.98
2018-04-22T12:59:49.793Z,28.67
2018-04-22T13:02:17.386Z,28.83
2018-04-22T13:04:45.006Z,29.12
2018-04-22T13:07:12.589Z,29.28
2018-04-22T13:09:40.209Z,29.51
2018-04-22T13:12:07.808Z,28.53
2018-04-22T13:14:35.935Z,28.88
2018-04-22T13:17:03.530Z,29.22
2018-04-22T13:19:31.126Z,29.82
2018-04-22T13:21:58.738Z,30.10
2018-04-22T13:24:26.327Z,30.02
2018-04-22T13:26:53.940Z,30.06
2018-04-22T13:29:21.530Z,29.38
2018-04-22T13:31:49.273Z,29.66
2018-04-22T13:34:16.861Z,30.06
2018-04-22T13:36:44.452Z,30.77
2018-04-22T13:39:12.061Z,31.74
2018-04-22T13:41:39.654Z,31.88
2018-04-22T13:44:07.259Z,31.13
2018-04-22T13:46:34.850Z,29.97
2018-04-22T13:49:02.463Z,29.66
2018-04-22T13:51:30.072Z,30.47
2018-04-22T13:53:57.665Z,30.16
2018-04-22T13:56:25.280Z,30.27
2018-04-22T13:58:52.882Z,30.13
2018-04-22T14:01:20.490Z,30.31
2018-04-22T14:03:48.075Z,29.63
2018-04-22T14:06:15.833Z,29.05
2018-04-22T14:08:43.422Z,28.98
2018-04-22T14:11:11.688Z,29.34
2018-04-22T14:13:39.359Z,29.06
2018-04-22T14:16:06.927Z,28.80
2018-04-22T14:18:34.539Z,28.76
2018-04-22T14:21:02.228Z,28.76
2018-04-22T14:23:29.855Z,28.99
2018-04-22T14:25:57.450Z,29.09
2018-04-22T14:28:25.042Z,28.69
2018-04-22T14:30:52.654Z,28.86
2018-04-22T14:33:20.259Z,28.78
2018-04-22T14:35:47.893Z,28.75
2018-04-22T14:38:15.518Z,28.61
2018-04-22T14:40:43.218Z,28.65
2018-04-22T14:43:10.821Z,28.50
2018-04-22T14:45:50.410Z,28.25
2018-04-22T14:48:18.023Z,28.08
2018-04-22T14:50:45.660Z,28.01
2018-04-22T14:53:13.363Z,28.06
2018-04-22T14:55:40.949Z,28.32
2018-04-22T14:58:08.562Z,28.14
2018-04-22T15:00:36.164Z,28.37
2018-04-22T15:03:04.162Z,27.98
2018-04-22T15:05:31.746Z,28.11
2018-04-22T15:07:59.427Z,28.07
2018-04-22T15:10:27.228Z,28.02
2018-04-22T15:12:54.815Z,28.02
2018-04-22T15:15:22.428Z,28.12
2018-04-22T15:17:50.043Z,27.99
2018-04-22T15:20:17.795Z,27.94
2018-04-22T15:22:45.391Z,28.04
2018-04-22T15:25:12.993Z,28.13
2018-04-22T15:27:40.605Z,28.12
2018-04-22T15:30:08.193Z,28.07
2018-04-22T15:32:35.802Z,28.00
2018-04-22T15:35:03.405Z,27.87
2018-04-22T15:37:31.026Z,27.84
2018-04-22T15:39:58.626Z,27.90
2018-04-22T15:42:26.227Z,27.90
2018-04-22T15:44:53.842Z,27.93
2018-04-22T15:47:21.436Z,27.89
2018-04-22T15:49:49.239Z,27.83
2018-04-22T15:52:16.832Z,27.85
2018-04-22T15:54:44.432Z,27.84
2018-04-22T15:57:12.046Z,27.80
2018-04-22T15:59:39.636Z,27.72
2018-04-22T16:02:07.463Z,27.67
2018-04-22T16:04:35.055Z,27.67
2018-04-22T16:07:02.653Z,27.68
2018-04-22T16:09:30.284Z,27.67
2018-04-22T16:11:57.876Z,27.64
2018-04-22T16:14:25.553Z,27.65
2018-04-22T16:16:53.105Z,27.72
2018-04-22T16:19:20.738Z,27.61
2018-04-22T16:21:48.335Z,27.77
2018-04-22T16:24:16.007Z,27.89
2018-04-22T16:26:43.710Z,27.95
2018-04-22T16:29:11.298Z,27.83
2018-04-22T16:31:38.940Z,27.76
2018-04-22T16:34:06.606Z,27.84
2018-04-22T16:36:34.412Z,27.84
2018-04-22T16:39:02.028Z,27.92
2018-04-22T16:41:29.627Z,27.75
2018-04-22T16:43:57.289Z,27.68
2018-04-22T16:46:24.886Z,27.62
2018-04-22T16:48:52.500Z,27.56
2018-04-22T16:51:20.090Z,27.52
2018-04-22T16:53:47.859Z,27.54
2018-04-22T16:56:15.517Z,27.80
2018-04-22T16:58:43.115Z,27.75
2018-04-22T17:01:10.726Z,27.57
2018-04-22T17:03:38.317Z,27.24
2018-04-22T17:06:05.957Z,27.10
2018-04-22T17:08:33.608Z,27.03
2018-04-22T17:11:01.228Z,27.01
2018-04-22T17:13:28.824Z,26.84
2018-04-22T17:15:56.426Z,26.79
2018-04-22T17:18:24.041Z,26.76
2018-04-22T17:20:51.634Z,26.64
2018-04-22T17:23:19.246Z,26.54
2018-04-22T17:25:46.835Z,26.36
2018-04-22T17:28:14.474Z,26.31
2018-04-22T17:30:42.072Z,26.22
2018-04-22T17:33:09.670Z,26.18
2018-04-22T17:35:37.288Z,26.08
2018-04-22T17:38:04.878Z,26.06
2018-04-22T17:40:32.490Z,26.01
2018-04-22T17:43:00.084Z,25.94
2018-04-22T17:45:27.714Z,25.91
2018-04-22T17:47:55.317Z,25.83
2018-04-22T17:50:22.914Z,25.79
2018-04-22T17:52:50.526Z,25.68
2018-04-22T17:55:18.365Z,25.55
2018-04-22T17:57:45.981Z,25.50
2018-04-22T18:00:13.581Z,25.43
2018-04-22T18:02:41.219Z,25.35
2018-04-22T18:05:08.810Z,25.31
2018-04-22T18:07:36.399Z,25.27
2018-04-22T18:10:04.026Z,25.21
2018-04-22T18:12:31.699Z,25.12
2018-04-22T18:14:59.325Z,25.01
2018-04-22T18:17:26.920Z,24.93
2018-04-22T18:19:54.568Z,24.85
2018-04-22T18:22:22.163Z,24.79
2018-04-22T18:24:49.762Z,24.70
2018-04-22T18:27:17.382Z,24.62
2018-04-22T18:29:44.975Z,24.54
2018-04-22T18:32:12.592Z,24.49
2018-04-22T18:34:40.183Z,24.42
2018-04-22T18:37:07.818Z,24.28
2018-04-22T18:39:35.422Z,24.20
2018-04-22T18:42:03.051Z,24.17
2018-04-22T18:44:30.727Z,24.17
2018-04-22T18:46:58.335Z,24.14
2018-04-22T18:49:26.147Z,24.11
2018-04-22T18:51:53.743Z,24.00
2018-04-22T18:54:21.339Z,23.87
2018-04-22T18:56:48.960Z,23.82
2018-04-22T18:59:16.584Z,23.79
2018-04-22T19:01:44.193Z,23.68
2018-04-22T19:04:11.781Z,23.50
2018-04-22T19:06:39.521Z,23.40
2018-04-22T19:09:07.125Z,23.43
2018-04-22T19:11:34.736Z,23.24
2018-04-22T19:14:02.366Z,23.20
2018-04-22T19:16:29.963Z,23.11
2018-04-22T19:18:57.584Z,23.15
2018-04-22T19:21:25.189Z,23.13
2018-04-22T19:23:52.841Z,23.11
2018-04-22T19:26:20.476Z,23.11
2018-04-22T19:28:48.077Z,23.10
2018-04-22T19:31:15.695Z,23.06
2018-04-22T19:33:43.289Z,23.05
2018-04-22T19:36:10.936Z,23.18
2018-04-22T19:38:38.526Z,23.12
2018-04-22T19:41:06.324Z,23.03
2018-04-22T19:43:33.922Z,22.94
2018-04-22T19:46:01.519Z,22.90
2018-04-22T19:48:29.142Z,22.84
2018-04-22T19:50:56.736Z,22.76
2018-04-22T19:53:24.368Z,22.79
2018-04-22T19:55:51.966Z,22.71
2018-04-22T19:58:19.592Z,22.57
2018-04-22T20:00:47.187Z,22.50
2018-04-22T20:03:14.841Z,22.53
2018-04-22T20:05:42.432Z,22.53
2018-04-22T20:08:10.063Z,22.39
2018-04-22T20:10:37.701Z,22.26
2018-04-22T20:13:05.310Z,22.17
2018-04-22T20:15:32.999Z,22.08
2018-04-22T20:18:00.573Z,22.01
2018-04-22T20:20:28.233Z,21.89
2018-04-22T20:22:55.826Z,21.85
2018-04-22T20:25:23.427Z,21.83
2018-04-22T20:27:51.062Z,21.75
2018-04-22T20:30:18.653Z,21.69
2018-04-22T20:32:46.276Z,21.61
2018-04-22T20:35:13.903Z,21.57
2018-04-22T20:37:41.543Z,21.47
2018-04-22T20:40:09.136Z,21.57
2018-04-22T20:42:36.750Z,21.46
2018-04-22T20:45:04.441Z,21.61
2018-04-22T20:47:32.045Z,21.53
2018-04-22T20:49:59.667Z,21.44
2018-04-22T20:52:27.263Z,21.35
2018-04-22T20:54:55.201Z,21.38
2018-04-22T20:57:22.795Z,21.36
2018-04-22T20:59:50.390Z,21.28
2018-04-22T21:02:18.000Z,21.18
2018-04-22T21:04:45.597Z,21.18
2018-04-22T21:07:13.255Z,21.12
2018-04-22T21:09:40.866Z,21.12
2018-04-22T21:12:08.736Z,21.12
2018-04-22T21:14:36.339Z,21.06
2018-04-22T21:17:03.942Z,21.04
2018-04-22T21:19:31.623Z,21.00
2018-04-22T21:21:59.218Z,21.05
2018-04-22T21:24:26.847Z,20.96
2018-04-22T21:26:54.438Z,21.00
2018-04-22T21:29:22.029Z,21.04
2018-04-22T21:31:49.639Z,20.92
2018-04-22T21:34:17.239Z,20.87
2018-04-22T21:36:44.867Z,20.91
2018-04-22T21:39:12.473Z,20.84
2018-04-22T21:41:40.237Z,20.87
2018-04-22T21:44:07.846Z,20.86
2018-04-22T21:46:35.438Z,20.93
2018-04-22T21:49:03.066Z,20.96
2018-04-22T21:51:30.657Z,20.85
2018-04-22T21:53:58.280Z,20.88
2018-04-22T21:56:25.874Z,20.82
2018-04-22T21:58:53.710Z,20.73
2018-04-22T22:01:21.310Z,20.71
2018-04-22T22:03:48.919Z,20.74
2018-04-22T22:06:16.603Z,20.70
2018-04-22T22:08:44.192Z,20.63
2018-04-22T22:11:11.813Z,20.61
2018-04-22T22:13:39.402Z,20.49
2018-04-22T22:16:07.023Z,20.51
2018-04-22T22:18:34.627Z,20.81
2018-04-22T22:21:02.358Z,20.60
2018-04-22T22:23:29.947Z,20.59
2018-04-22T22:25:57.555Z,20.61
2018-04-22T22:28:25.174Z,20.65
2018-04-22T22:30:52.784Z,20.67
2018-04-22T22:33:20.411Z,20.74
2018-04-22T22:35:48.006Z,20.70
2018-04-22T22:38:15.796Z,20.54
2018-04-22T22:40:43.409Z,20.50
2018-04-22T22:43:11.005Z,20.44
2018-04-22T22:45:38.619Z,20.42
2018-04-22T22:48:06.214Z,20.47
2018-04-22T22:50:33.835Z,20.27
2018-04-22T22:53:01.428Z,20.31
2018-04-22T22:55:29.227Z,20.23
2018-04-22T22:57:56.827Z,20.14
2018-04-22T23:00:24.427Z,20.37
2018-04-22T23:02:52.060Z,20.24
2018-04-22T23:05:19.658Z,20.15
2018-04-22T23:07:47.342Z,20.20
2018-04-22T23:10:14.942Z,20.15
2018-04-22T23:12:42.575Z,20.17
2018-04-22T23:15:10.182Z,20.05
2018-04-22T23:17:37.764Z,20.05
2018-04-22T23:20:05.398Z,20.17
2018-04-22T23:22:32.986Z,20.09
2018-04-22T23:25:00.606Z,19.86
2018-04-22T23:27:28.196Z,19.89
2018-04-22T23:29:56.104Z,19.97
2018-04-22T23:32:23.746Z,19.91
2018-04-22T23:34:51.309Z,19.99
2018-04-22T23:37:18.929Z,19.98
2018-04-22T23:39:46.516Z,19.98
2018-04-22T23:42:14.139Z,19.94
2018-04-22T23:44:41.737Z,19.92
2018-04-22T23:47:09.527Z,19.90
2018-04-22T23:49:37.111Z,19.92
2018-04-22T23:52:04.711Z,19.95
2018-04-22T23:54:32.326Z,19.93
2018-04-22T23:56:59.914Z,19.89
2018-04-22T23:59:27.535Z,19.85
